sensor_id;sensor_type;location;lat;lon;timestamp;P1;durP1;ratioP1;P2;durP2;ratioP2
26191;SDS011;13935;55.672;37.764;2022-08-03T00:00:59;15.32;;;10.70;;
26191;SDS011;13935;55.672;37.764;2022-08-03T00:02:01;15.68;;;10.02;;
26191;SDS011;13935;55.672;37.764;2022-08-03T00:03:08;14.65;;;10.18;;
26191;SDS011;13935;55.672;37.764;2022-08-03T00:04:11;17.48;;;10.15;;
26191;SDS011;13935;55.672;37.764;2022-08-03T00:05:16;18.13;;;10.70;;
26191;SDS011;13935;55.672;37.764;2022-08-03T00:06:18;13.45;;;9.73;;
26191;SDS011;13935;55.672;37.764;2022-08-03T00:07:22;14.05;;;9.82;;
26191;SDS011;13935;55.672;37.764;2022-08-03T00:08:26;15.18;;;10.32;;
26191;SDS011;13935;55.672;37.764;2022-08-03T00:09:29;16.55;;;9.70;;
26191;SDS011;13935;55.672;37.764;2022-08-03T00:10:36;16.05;;;10.45;;
26191;SDS011;13935;55.672;37.764;2022-08-03T00:11:39;20.10;;;10.18;;
26191;SDS011;13935;55.672;37.764;2022-08-03T00:12:41;18.85;;;10.48;;
26191;SDS011;13935;55.672;37.764;2022-08-03T00:13:43;14.65;;;10.27;;
26191;SDS011;13935;55.672;37.764;2022-08-03T00:14:45;14.70;;;10.38;;
26191;SDS011;13935;55.672;37.764;2022-08-03T00:15:48;15.60;;;10.65;;
26191;SDS011;13935;55.672;37.764;2022-08-03T00:16:50;17.02;;;10.52;;
26191;SDS011;13935;55.672;37.764;2022-08-03T00:17:52;15.25;;;9.40;;
26191;SDS011;13935;55.672;37.764;2022-08-03T00:18:55;12.45;;;9.93;;
26191;SDS011;13935;55.672;37.764;2022-08-03T00:19:57;14.05;;;10.10;;
26191;SDS011;13935;55.672;37.764;2022-08-03T00:20:59;14.30;;;10.45;;
26191;SDS011;13935;55.672;37.764;2022-08-03T00:22:02;15.25;;;10.80;;
26191;SDS011;13935;55.672;37.764;2022-08-03T00:23:05;11.88;;;9.75;;
26191;SDS011;13935;55.672;37.764;2022-08-03T00:24:08;13.60;;;10.00;;
26191;SDS011;13935;55.672;37.764;2022-08-03T00:25:10;15.27;;;9.85;;
26191;SDS011;13935;55.672;37.764;2022-08-03T00:26:12;17.98;;;11.43;;
26191;SDS011;13935;55.672;37.764;2022-08-03T00:27:14;15.93;;;9.82;;
26191;SDS011;13935;55.672;37.764;2022-08-03T00:28:17;15.10;;;11.02;;
26191;SDS011;13935;55.672;37.764;2022-08-03T00:29:19;15.23;;;10.40;;
26191;SDS011;13935;55.672;37.764;2022-08-03T00:30:22;21.23;;;10.50;;
26191;SDS011;13935;55.672;37.764;2022-08-03T00:31:32;16.45;;;10.43;;
26191;SDS011;13935;55.672;37.764;2022-08-03T00:32:53;12.73;;;10.25;;
26191;SDS011;13935;55.672;37.764;2022-08-03T00:33:55;15.85;;;11.00;;
26191;SDS011;13935;55.672;37.764;2022-08-03T00:35:00;17.02;;;10.77;;
26191;SDS011;13935;55.672;37.764;2022-08-03T00:36:11;14.45;;;10.93;;
26191;SDS011;13935;55.672;37.764;2022-08-03T00:37:16;15.15;;;10.77;;
26191;SDS011;13935;55.672;37.764;2022-08-03T00:38:19;12.70;;;10.63;;
26191;SDS011;13935;55.672;37.764;2022-08-03T00:39:21;15.32;;;10.55;;
26191;SDS011;13935;55.672;37.764;2022-08-03T00:40:23;15.25;;;10.35;;
26191;SDS011;13935;55.672;37.764;2022-08-03T00:41:26;11.52;;;9.75;;
26191;SDS011;13935;55.672;37.764;2022-08-03T00:42:28;13.07;;;9.73;;
26191;SDS011;13935;55.672;37.764;2022-08-03T00:43:30;15.88;;;10.73;;
26191;SDS011;13935;55.672;37.764;2022-08-03T00:44:38;16.90;;;10.65;;
26191;SDS011;13935;55.672;37.764;2022-08-03T00:45:42;16.00;;;10.98;;
26191;SDS011;13935;55.672;37.764;2022-08-03T00:46:45;17.60;;;10.73;;
26191;SDS011;13935;55.672;37.764;2022-08-03T00:47:47;15.88;;;11.45;;
26191;SDS011;13935;55.672;37.764;2022-08-03T00:48:49;14.05;;;11.32;;
26191;SDS011;13935;55.672;37.764;2022-08-03T00:49:52;17.92;;;11.02;;
26191;SDS011;13935;55.672;37.764;2022-08-03T00:51:02;15.70;;;11.27;;
26191;SDS011;13935;55.672;37.764;2022-08-03T00:52:04;17.20;;;11.43;;
26191;SDS011;13935;55.672;37.764;2022-08-03T00:53:11;16.95;;;12.38;;
26191;SDS011;13935;55.672;37.764;2022-08-03T00:54:14;18.08;;;11.38;;
26191;SDS011;13935;55.672;37.764;2022-08-03T00:55:17;18.38;;;11.45;;
26191;SDS011;13935;55.672;37.764;2022-08-03T00:56:19;14.80;;;11.57;;
26191;SDS011;13935;55.672;37.764;2022-08-03T00:57:22;15.02;;;11.10;;
26191;SDS011;13935;55.672;37.764;2022-08-03T00:58:25;16.10;;;11.55;;
26191;SDS011;13935;55.672;37.764;2022-08-03T00:59:28;17.73;;;12.30;;
26191;SDS011;13935;55.672;37.764;2022-08-03T01:00:31;15.43;;;12.30;;
26191;SDS011;13935;55.672;37.764;2022-08-03T01:01:36;16.45;;;11.70;;
26191;SDS011;13935;55.672;37.764;2022-08-03T01:02:39;17.60;;;12.32;;
26191;SDS011;13935;55.672;37.764;2022-08-03T01:03:41;18.42;;;11.20;;
26191;SDS011;13935;55.672;37.764;2022-08-03T01:04:44;18.15;;;11.90;;
26191;SDS011;13935;55.672;37.764;2022-08-03T01:05:59;14.45;;;10.95;;
26191;SDS011;13935;55.672;37.764;2022-08-03T01:12:40;14.18;;;11.68;;
26191;SDS011;13935;55.672;37.764;2022-08-03T01:13:56;14.57;;;12.13;;
26191;SDS011;13935;55.672;37.764;2022-08-03T01:16:36;17.23;;;12.18;;
26191;SDS011;13935;55.672;37.764;2022-08-03T01:18:02;17.50;;;12.10;;
26191;SDS011;13935;55.672;37.764;2022-08-03T01:20:43;15.27;;;11.18;;
26191;SDS011;13935;55.672;37.764;2022-08-03T01:25:01;17.65;;;11.60;;
26191;SDS011;13935;55.672;37.764;2022-08-03T01:26:12;13.35;;;10.90;;
26191;SDS011;13935;55.672;37.764;2022-08-03T01:30:18;17.15;;;11.25;;
26191;SDS011;13935;55.672;37.764;2022-08-03T01:31:36;13.88;;;11.30;;
26191;SDS011;13935;55.672;37.764;2022-08-03T01:34:07;13.38;;;10.88;;
26191;SDS011;13935;55.672;37.764;2022-08-03T01:35:15;16.08;;;11.38;;
26191;SDS011;13935;55.672;37.764;2022-08-03T01:36:23;13.15;;;11.05;;
26191;SDS011;13935;55.672;37.764;2022-08-03T01:37:40;15.15;;;11.70;;
26191;SDS011;13935;55.672;37.764;2022-08-03T01:38:52;14.88;;;11.68;;
26191;SDS011;13935;55.672;37.764;2022-08-03T01:40:02;18.48;;;11.68;;
26191;SDS011;13935;55.672;37.764;2022-08-03T01:41:08;17.13;;;11.90;;
26191;SDS011;13935;55.672;37.764;2022-08-03T01:42:13;18.33;;;11.82;;
26191;SDS011;13935;55.672;37.764;2022-08-03T01:43:20;18.95;;;11.48;;
26191;SDS011;13935;55.672;37.764;2022-08-03T01:44:45;17.90;;;11.75;;
26191;SDS011;13935;55.672;37.764;2022-08-03T01:45:51;14.68;;;11.70;;
26191;SDS011;13935;55.672;37.764;2022-08-03T01:46:59;16.33;;;11.82;;
26191;SDS011;13935;55.672;37.764;2022-08-03T01:48:03;14.88;;;12.20;;
26191;SDS011;13935;55.672;37.764;2022-08-03T01:49:08;17.27;;;11.82;;
26191;SDS011;13935;55.672;37.764;2022-08-03T01:50:12;17.88;;;11.82;;
26191;SDS011;13935;55.672;37.764;2022-08-03T01:51:18;16.65;;;11.73;;
26191;SDS011;13935;55.672;37.764;2022-08-03T01:52:23;18.75;;;12.05;;
26191;SDS011;13935;55.672;37.764;2022-08-03T01:53:26;14.70;;;12.30;;
26191;SDS011;13935;55.672;37.764;2022-08-03T01:54:33;15.02;;;12.10;;
26191;SDS011;13935;55.672;37.764;2022-08-03T01:55:37;15.85;;;12.35;;
26191;SDS011;13935;55.672;37.764;2022-08-03T01:56:41;15.30;;;12.43;;
26191;SDS011;13935;55.672;37.764;2022-08-03T01:57:45;18.40;;;11.73;;
26191;SDS011;13935;55.672;37.764;2022-08-03T01:59:07;15.10;;;12.05;;
26191;SDS011;13935;55.672;37.764;2022-08-03T02:00:19;14.77;;;12.15;;
26191;SDS011;13935;55.672;37.764;2022-08-03T02:01:29;14.18;;;11.10;;
26191;SDS011;13935;55.672;37.764;2022-08-03T02:02:52;13.57;;;10.75;;
26191;SDS011;13935;55.672;37.764;2022-08-03T02:03:56;14.95;;;11.88;;
26191;SDS011;13935;55.672;37.764;2022-08-03T02:05:02;14.55;;;12.00;;
26191;SDS011;13935;55.672;37.764;2022-08-03T02:06:11;18.33;;;13.35;;
26191;SDS011;13935;55.672;37.764;2022-08-03T02:07:36;15.52;;;11.98;;
26191;SDS011;13935;55.672;37.764;2022-08-03T02:08:40;14.73;;;11.48;;
26191;SDS011;13935;55.672;37.764;2022-08-03T02:09:46;17.50;;;12.30;;
26191;SDS011;13935;55.672;37.764;2022-08-03T02:10:52;14.32;;;12.05;;
26191;SDS011;13935;55.672;37.764;2022-08-03T02:11:57;18.55;;;11.93;;
26191;SDS011;13935;55.672;37.764;2022-08-03T02:13:02;14.77;;;11.75;;
26191;SDS011;13935;55.672;37.764;2022-08-03T02:14:09;17.85;;;12.52;;
26191;SDS011;13935;55.672;37.764;2022-08-03T02:15:14;17.98;;;12.00;;
26191;SDS011;13935;55.672;37.764;2022-08-03T02:16:17;15.43;;;12.45;;
26191;SDS011;13935;55.672;37.764;2022-08-03T02:17:20;15.68;;;12.43;;
26191;SDS011;13935;55.672;37.764;2022-08-03T02:18:40;14.60;;;11.55;;
26191;SDS011;13935;55.672;37.764;2022-08-03T02:19:43;22.02;;;14.98;;
26191;SDS011;13935;55.672;37.764;2022-08-03T02:20:46;16.13;;;13.27;;
26191;SDS011;13935;55.672;37.764;2022-08-03T02:21:50;19.98;;;12.60;;
26191;SDS011;13935;55.672;37.764;2022-08-03T02:23:01;17.65;;;13.52;;
26191;SDS011;13935;55.672;37.764;2022-08-03T02:24:04;14.27;;;12.77;;
26191;SDS011;13935;55.672;37.764;2022-08-03T02:25:07;18.00;;;13.07;;
26191;SDS011;13935;55.672;37.764;2022-08-03T02:26:13;16.70;;;12.77;;
26191;SDS011;13935;55.672;37.764;2022-08-03T02:27:25;16.95;;;13.20;;
26191;SDS011;13935;55.672;37.764;2022-08-03T02:28:29;18.30;;;12.68;;
26191;SDS011;13935;55.672;37.764;2022-08-03T02:29:35;16.08;;;12.35;;
26191;SDS011;13935;55.672;37.764;2022-08-03T02:30:42;16.88;;;13.35;;
26191;SDS011;13935;55.672;37.764;2022-08-03T02:31:54;16.05;;;13.07;;
26191;SDS011;13935;55.672;37.764;2022-08-03T02:33:00;14.90;;;13.15;;
26191;SDS011;13935;55.672;37.764;2022-08-03T02:34:06;17.70;;;12.82;;
26191;SDS011;13935;55.672;37.764;2022-08-03T02:35:12;17.30;;;13.48;;
26191;SDS011;13935;55.672;37.764;2022-08-03T02:36:19;17.05;;;13.07;;
26191;SDS011;13935;55.672;37.764;2022-08-03T02:37:25;16.70;;;13.80;;
26191;SDS011;13935;55.672;37.764;2022-08-03T02:38:32;18.55;;;13.68;;
26191;SDS011;13935;55.672;37.764;2022-08-03T02:39:37;17.67;;;13.07;;
26191;SDS011;13935;55.672;37.764;2022-08-03T02:40:41;16.83;;;13.00;;
26191;SDS011;13935;55.672;37.764;2022-08-03T02:41:51;15.32;;;12.88;;
26191;SDS011;13935;55.672;37.764;2022-08-03T02:42:59;20.05;;;12.80;;
26191;SDS011;13935;55.672;37.764;2022-08-03T02:44:06;17.58;;;13.82;;
26191;SDS011;13935;55.672;37.764;2022-08-03T02:45:10;13.73;;;12.25;;
26191;SDS011;13935;55.672;37.764;2022-08-03T02:46:17;16.83;;;13.73;;
26191;SDS011;13935;55.672;37.764;2022-08-03T02:47:23;15.20;;;13.30;;
26191;SDS011;13935;55.672;37.764;2022-08-03T02:48:28;14.63;;;13.07;;
26191;SDS011;13935;55.672;37.764;2022-08-03T02:49:33;16.73;;;14.82;;
26191;SDS011;13935;55.672;37.764;2022-08-03T02:51:55;15.48;;;13.77;;
26191;SDS011;13935;55.672;37.764;2022-08-03T02:53:00;21.70;;;14.00;;
26191;SDS011;13935;55.672;37.764;2022-08-03T02:54:04;16.77;;;13.20;;
26191;SDS011;13935;55.672;37.764;2022-08-03T02:55:09;16.98;;;14.30;;
26191;SDS011;13935;55.672;37.764;2022-08-03T02:56:12;18.15;;;13.65;;
26191;SDS011;13935;55.672;37.764;2022-08-03T02:57:16;22.85;;;14.02;;
26191;SDS011;13935;55.672;37.764;2022-08-03T02:58:20;16.80;;;13.80;;
26191;SDS011;13935;55.672;37.764;2022-08-03T02:59:24;18.45;;;13.93;;
26191;SDS011;13935;55.672;37.764;2022-08-03T03:00:32;16.55;;;14.60;;
26191;SDS011;13935;55.672;37.764;2022-08-03T03:01:35;20.27;;;14.63;;
26191;SDS011;13935;55.672;37.764;2022-08-03T03:02:40;22.52;;;14.02;;
26191;SDS011;13935;55.672;37.764;2022-08-03T03:03:45;18.17;;;14.77;;
26191;SDS011;13935;55.672;37.764;2022-08-03T03:04:50;18.30;;;15.00;;
26191;SDS011;13935;55.672;37.764;2022-08-03T03:06:14;27.15;;;20.40;;
26191;SDS011;13935;55.672;37.764;2022-08-03T03:07:19;25.45;;;19.75;;
26191;SDS011;13935;55.672;37.764;2022-08-03T03:08:23;20.33;;;17.10;;
26191;SDS011;13935;55.672;37.764;2022-08-03T03:09:29;18.95;;;15.55;;
26191;SDS011;13935;55.672;37.764;2022-08-03T03:10:43;20.30;;;15.35;;
26191;SDS011;13935;55.672;37.764;2022-08-03T03:11:47;20.02;;;15.13;;
26191;SDS011;13935;55.672;37.764;2022-08-03T03:12:52;24.65;;;15.32;;
26191;SDS011;13935;55.672;37.764;2022-08-03T03:13:59;20.75;;;15.15;;
26191;SDS011;13935;55.672;37.764;2022-08-03T03:15:03;20.23;;;15.35;;
26191;SDS011;13935;55.672;37.764;2022-08-03T03:16:06;18.67;;;14.82;;
26191;SDS011;13935;55.672;37.764;2022-08-03T03:17:10;19.63;;;15.48;;
26191;SDS011;13935;55.672;37.764;2022-08-03T03:18:13;19.48;;;15.32;;
26191;SDS011;13935;55.672;37.764;2022-08-03T03:19:22;19.42;;;14.70;;
26191;SDS011;13935;55.672;37.764;2022-08-03T03:20:26;17.08;;;15.35;;
26191;SDS011;13935;55.672;37.764;2022-08-03T03:21:31;18.00;;;15.27;;
26191;SDS011;13935;55.672;37.764;2022-08-03T03:22:37;19.58;;;15.75;;
26191;SDS011;13935;55.672;37.764;2022-08-03T03:23:46;19.02;;;16.13;;
26191;SDS011;13935;55.672;37.764;2022-08-03T03:24:50;21.52;;;15.75;;
26191;SDS011;13935;55.672;37.764;2022-08-03T03:25:54;20.85;;;16.15;;
26191;SDS011;13935;55.672;37.764;2022-08-03T03:26:59;20.45;;;15.15;;
26191;SDS011;13935;55.672;37.764;2022-08-03T03:28:01;18.35;;;16.05;;
26191;SDS011;13935;55.672;37.764;2022-08-03T03:29:06;17.67;;;14.75;;
26191;SDS011;13935;55.672;37.764;2022-08-03T03:30:10;19.02;;;15.80;;
26191;SDS011;13935;55.672;37.764;2022-08-03T03:31:13;24.65;;;16.55;;
26191;SDS011;13935;55.672;37.764;2022-08-03T03:32:15;19.70;;;14.90;;
26191;SDS011;13935;55.672;37.764;2022-08-03T03:33:18;20.08;;;15.70;;
26191;SDS011;13935;55.672;37.764;2022-08-03T03:34:22;18.77;;;15.27;;
26191;SDS011;13935;55.672;37.764;2022-08-03T03:35:25;17.50;;;14.93;;
26191;SDS011;13935;55.672;37.764;2022-08-03T03:36:30;23.42;;;15.27;;
26191;SDS011;13935;55.672;37.764;2022-08-03T03:37:32;18.75;;;15.35;;
26191;SDS011;13935;55.672;37.764;2022-08-03T03:38:34;21.65;;;15.75;;
26191;SDS011;13935;55.672;37.764;2022-08-03T03:39:36;21.60;;;15.60;;
26191;SDS011;13935;55.672;37.764;2022-08-03T03:40:38;20.88;;;16.00;;
26191;SDS011;13935;55.672;37.764;2022-08-03T03:41:41;20.58;;;16.35;;
26191;SDS011;13935;55.672;37.764;2022-08-03T03:42:44;19.33;;;15.60;;
26191;SDS011;13935;55.672;37.764;2022-08-03T03:43:47;25.90;;;15.77;;
26191;SDS011;13935;55.672;37.764;2022-08-03T03:44:51;21.45;;;16.00;;
26191;SDS011;13935;55.672;37.764;2022-08-03T03:45:53;20.27;;;16.17;;
26191;SDS011;13935;55.672;37.764;2022-08-03T03:46:56;20.27;;;16.00;;
26191;SDS011;13935;55.672;37.764;2022-08-03T03:48:00;20.25;;;15.90;;
26191;SDS011;13935;55.672;37.764;2022-08-03T03:49:04;18.60;;;14.52;;
26191;SDS011;13935;55.672;37.764;2022-08-03T03:50:06;20.98;;;16.20;;
26191;SDS011;13935;55.672;37.764;2022-08-03T03:51:09;19.63;;;16.23;;
26191;SDS011;13935;55.672;37.764;2022-08-03T03:52:12;21.08;;;16.25;;
26191;SDS011;13935;55.672;37.764;2022-08-03T03:53:17;17.52;;;15.63;;
26191;SDS011;13935;55.672;37.764;2022-08-03T03:54:19;20.75;;;15.60;;
26191;SDS011;13935;55.672;37.764;2022-08-03T03:55:25;23.83;;;15.38;;
26191;SDS011;13935;55.672;37.764;2022-08-03T03:56:31;20.00;;;14.90;;
26191;SDS011;13935;55.672;37.764;2022-08-03T03:57:33;20.02;;;15.98;;
26191;SDS011;13935;55.672;37.764;2022-08-03T03:58:38;19.05;;;14.90;;
26191;SDS011;13935;55.672;37.764;2022-08-03T03:59:41;20.15;;;15.30;;
26191;SDS011;13935;55.672;37.764;2022-08-03T04:00:43;19.67;;;15.68;;
26191;SDS011;13935;55.672;37.764;2022-08-03T04:01:46;17.17;;;15.32;;
26191;SDS011;13935;55.672;37.764;2022-08-03T04:02:59;23.52;;;15.18;;
26191;SDS011;13935;55.672;37.764;2022-08-03T04:04:01;22.92;;;14.65;;
26191;SDS011;13935;55.672;37.764;2022-08-03T04:05:23;21.63;;;14.77;;
26191;SDS011;13935;55.672;37.764;2022-08-03T04:06:46;18.08;;;14.65;;
26191;SDS011;13935;55.672;37.764;2022-08-03T04:08:08;22.25;;;14.68;;
26191;SDS011;13935;55.672;37.764;2022-08-03T04:09:31;22.75;;;14.40;;
26191;SDS011;13935;55.672;37.764;2022-08-03T04:12:09;17.80;;;13.77;;
26191;SDS011;13935;55.672;37.764;2022-08-03T04:13:12;18.10;;;14.10;;
26191;SDS011;13935;55.672;37.764;2022-08-03T04:14:31;16.15;;;13.90;;
26191;SDS011;13935;55.672;37.764;2022-08-03T04:15:37;16.45;;;13.63;;
26191;SDS011;13935;55.672;37.764;2022-08-03T04:16:42;16.67;;;12.93;;
26191;SDS011;13935;55.672;37.764;2022-08-03T04:17:47;15.80;;;13.63;;
26191;SDS011;13935;55.672;37.764;2022-08-03T04:18:58;18.60;;;13.38;;
26191;SDS011;13935;55.672;37.764;2022-08-03T04:20:03;17.45;;;13.70;;
26191;SDS011;13935;55.672;37.764;2022-08-03T04:21:10;18.15;;;13.82;;
26191;SDS011;13935;55.672;37.764;2022-08-03T04:22:16;17.80;;;13.98;;
26191;SDS011;13935;55.672;37.764;2022-08-03T04:23:25;17.65;;;13.70;;
26191;SDS011;13935;55.672;37.764;2022-08-03T04:24:30;16.33;;;14.60;;
26191;SDS011;13935;55.672;37.764;2022-08-03T04:25:35;21.17;;;14.80;;
26191;SDS011;13935;55.672;37.764;2022-08-03T04:26:44;18.20;;;13.60;;
26191;SDS011;13935;55.672;37.764;2022-08-03T04:27:53;22.35;;;14.27;;
26191;SDS011;13935;55.672;37.764;2022-08-03T04:29:19;16.73;;;13.85;;
26191;SDS011;13935;55.672;37.764;2022-08-03T04:30:27;17.00;;;14.20;;
26191;SDS011;13935;55.672;37.764;2022-08-03T04:31:30;17.80;;;13.73;;
26191;SDS011;13935;55.672;37.764;2022-08-03T04:32:42;14.90;;;13.02;;
26191;SDS011;13935;55.672;37.764;2022-08-03T04:33:52;15.13;;;13.68;;
26191;SDS011;13935;55.672;37.764;2022-08-03T04:34:55;17.55;;;13.50;;
26191;SDS011;13935;55.672;37.764;2022-08-03T04:35:58;16.45;;;13.65;;
26191;SDS011;13935;55.672;37.764;2022-08-03T04:37:04;17.77;;;13.60;;
26191;SDS011;13935;55.672;37.764;2022-08-03T04:38:13;17.70;;;14.00;;
26191;SDS011;13935;55.672;37.764;2022-08-03T04:39:22;14.13;;;12.65;;
26191;SDS011;13935;55.672;37.764;2022-08-03T04:40:34;17.00;;;13.57;;
26191;SDS011;13935;55.672;37.764;2022-08-03T04:41:40;16.42;;;13.23;;
26191;SDS011;13935;55.672;37.764;2022-08-03T04:43:05;14.85;;;12.57;;
26191;SDS011;13935;55.672;37.764;2022-08-03T04:44:09;17.42;;;12.68;;
26191;SDS011;13935;55.672;37.764;2022-08-03T04:45:14;18.67;;;12.40;;
26191;SDS011;13935;55.672;37.764;2022-08-03T04:46:18;15.20;;;11.80;;
26191;SDS011;13935;55.672;37.764;2022-08-03T04:47:24;18.73;;;11.57;;
26191;SDS011;13935;55.672;37.764;2022-08-03T04:48:27;13.63;;;10.63;;
26191;SDS011;13935;55.672;37.764;2022-08-03T04:49:30;15.00;;;11.88;;
26191;SDS011;13935;55.672;37.764;2022-08-03T04:50:33;15.65;;;11.20;;
26191;SDS011;13935;55.672;37.764;2022-08-03T04:51:38;14.00;;;10.88;;
26191;SDS011;13935;55.672;37.764;2022-08-03T04:52:41;11.90;;;10.38;;
26191;SDS011;13935;55.672;37.764;2022-08-03T04:53:43;12.98;;;10.60;;
26191;SDS011;13935;55.672;37.764;2022-08-03T04:54:45;11.68;;;10.25;;
26191;SDS011;13935;55.672;37.764;2022-08-03T04:55:51;11.32;;;10.10;;
26191;SDS011;13935;55.672;37.764;2022-08-03T04:56:53;14.20;;;10.02;;
26191;SDS011;13935;55.672;37.764;2022-08-03T04:57:56;11.88;;;10.25;;
26191;SDS011;13935;55.672;37.764;2022-08-03T04:58:59;15.18;;;10.15;;
26191;SDS011;13935;55.672;37.764;2022-08-03T05:00:02;13.32;;;10.75;;
26191;SDS011;13935;55.672;37.764;2022-08-03T05:01:06;10.75;;;9.75;;
26191;SDS011;13935;55.672;37.764;2022-08-03T05:02:08;10.80;;;9.75;;
26191;SDS011;13935;55.672;37.764;2022-08-03T05:03:10;13.35;;;9.70;;
26191;SDS011;13935;55.672;37.764;2022-08-03T05:04:25;12.73;;;9.73;;
26191;SDS011;13935;55.672;37.764;2022-08-03T05:05:27;13.18;;;9.98;;
26191;SDS011;13935;55.672;37.764;2022-08-03T05:06:49;11.45;;;9.73;;
26191;SDS011;13935;55.672;37.764;2022-08-03T05:07:56;13.18;;;9.82;;
26191;SDS011;13935;55.672;37.764;2022-08-03T05:09:01;12.77;;;10.30;;
26191;SDS011;13935;55.672;37.764;2022-08-03T05:10:06;14.27;;;10.43;;
26191;SDS011;13935;55.672;37.764;2022-08-03T05:11:19;16.35;;;10.05;;
26191;SDS011;13935;55.672;37.764;2022-08-03T05:12:21;14.20;;;9.38;;
26191;SDS011;13935;55.672;37.764;2022-08-03T05:13:24;12.07;;;9.27;;
26191;SDS011;13935;55.672;37.764;2022-08-03T05:14:27;12.98;;;9.45;;
26191;SDS011;13935;55.672;37.764;2022-08-03T05:15:29;13.55;;;9.93;;
26191;SDS011;13935;55.672;37.764;2022-08-03T05:16:31;15.80;;;9.60;;
26191;SDS011;13935;55.672;37.764;2022-08-03T05:17:35;14.98;;;9.82;;
26191;SDS011;13935;55.672;37.764;2022-08-03T05:18:37;12.30;;;9.40;;
26191;SDS011;13935;55.672;37.764;2022-08-03T05:19:39;15.80;;;9.30;;
26191;SDS011;13935;55.672;37.764;2022-08-03T05:20:41;10.65;;;9.30;;
26191;SDS011;13935;55.672;37.764;2022-08-03T05:21:43;12.57;;;9.85;;
26191;SDS011;13935;55.672;37.764;2022-08-03T05:22:53;15.63;;;9.40;;
26191;SDS011;13935;55.672;37.764;2022-08-03T05:23:56;12.30;;;9.30;;
26191;SDS011;13935;55.672;37.764;2022-08-03T05:24:59;16.95;;;9.70;;
26191;SDS011;13935;55.672;37.764;2022-08-03T05:26:02;12.73;;;8.93;;
26191;SDS011;13935;55.672;37.764;2022-08-03T05:27:04;11.27;;;9.38;;
26191;SDS011;13935;55.672;37.764;2022-08-03T05:28:06;16.38;;;9.23;;
26191;SDS011;13935;55.672;37.764;2022-08-03T05:29:09;11.48;;;9.02;;
26191;SDS011;13935;55.672;37.764;2022-08-03T05:30:11;28.48;;;22.58;;
26191;SDS011;13935;55.672;37.764;2022-08-03T05:31:33;12.50;;;9.85;;
26191;SDS011;13935;55.672;37.764;2022-08-03T05:32:35;15.52;;;9.10;;
26191;SDS011;13935;55.672;37.764;2022-08-03T05:33:38;16.27;;;9.30;;
26191;SDS011;13935;55.672;37.764;2022-08-03T05:34:40;11.43;;;8.30;;
26191;SDS011;13935;55.672;37.764;2022-08-03T05:35:42;10.18;;;8.98;;
26191;SDS011;13935;55.672;37.764;2022-08-03T05:37:04;14.27;;;8.32;;
26191;SDS011;13935;55.672;37.764;2022-08-03T05:38:08;16.40;;;8.45;;
26191;SDS011;13935;55.672;37.764;2022-08-03T05:39:11;11.85;;;7.85;;
26191;SDS011;13935;55.672;37.764;2022-08-03T05:40:13;14.90;;;7.88;;
26191;SDS011;13935;55.672;37.764;2022-08-03T05:41:15;13.30;;;7.88;;
26191;SDS011;13935;55.672;37.764;2022-08-03T05:42:23;12.80;;;7.97;;
26191;SDS011;13935;55.672;37.764;2022-08-03T05:43:25;13.48;;;8.45;;
26191;SDS011;13935;55.672;37.764;2022-08-03T05:44:27;11.57;;;8.80;;
26191;SDS011;13935;55.672;37.764;2022-08-03T05:45:32;10.02;;;8.10;;
26191;SDS011;13935;55.672;37.764;2022-08-03T05:46:34;14.63;;;8.63;;
26191;SDS011;13935;55.672;37.764;2022-08-03T05:47:36;14.15;;;8.32;;
26191;SDS011;13935;55.672;37.764;2022-08-03T05:48:39;12.02;;;8.45;;
26191;SDS011;13935;55.672;37.764;2022-08-03T05:49:42;11.25;;;8.25;;
26191;SDS011;13935;55.672;37.764;2022-08-03T05:50:44;11.68;;;7.90;;
26191;SDS011;13935;55.672;37.764;2022-08-03T05:51:49;12.57;;;8.60;;
26191;SDS011;13935;55.672;37.764;2022-08-03T05:53:11;9.00;;;7.50;;
26191;SDS011;13935;55.672;37.764;2022-08-03T05:54:16;10.60;;;7.88;;
26191;SDS011;13935;55.672;37.764;2022-08-03T05:55:18;10.73;;;7.75;;
26191;SDS011;13935;55.672;37.764;2022-08-03T05:56:20;13.75;;;8.15;;
26191;SDS011;13935;55.672;37.764;2022-08-03T05:57:25;16.00;;;7.93;;
26191;SDS011;13935;55.672;37.764;2022-08-03T05:58:27;13.77;;;8.00;;
26191;SDS011;13935;55.672;37.764;2022-08-03T05:59:30;8.85;;;7.93;;
26191;SDS011;13935;55.672;37.764;2022-08-03T06:00:52;11.00;;;7.55;;
26191;SDS011;13935;55.672;37.764;2022-08-03T06:01:55;11.88;;;7.75;;
26191;SDS011;13935;55.672;37.764;2022-08-03T06:02:57;12.85;;;7.97;;
26191;SDS011;13935;55.672;37.764;2022-08-03T06:04:00;12.70;;;8.48;;
26191;SDS011;13935;55.672;37.764;2022-08-03T06:05:02;14.48;;;8.52;;
26191;SDS011;13935;55.672;37.764;2022-08-03T06:06:04;10.55;;;8.50;;
26191;SDS011;13935;55.672;37.764;2022-08-03T06:07:06;12.45;;;8.75;;
26191;SDS011;13935;55.672;37.764;2022-08-03T06:08:08;13.68;;;8.82;;
26191;SDS011;13935;55.672;37.764;2022-08-03T06:09:16;13.38;;;8.00;;
26191;SDS011;13935;55.672;37.764;2022-08-03T06:10:18;11.52;;;8.40;;
26191;SDS011;13935;55.672;37.764;2022-08-03T06:11:38;17.42;;;9.30;;
26191;SDS011;13935;55.672;37.764;2022-08-03T06:12:42;12.38;;;8.90;;
26191;SDS011;13935;55.672;37.764;2022-08-03T06:13:48;13.55;;;8.65;;
26191;SDS011;13935;55.672;37.764;2022-08-03T06:14:52;13.55;;;8.95;;
26191;SDS011;13935;55.672;37.764;2022-08-03T06:15:54;11.20;;;8.40;;
26191;SDS011;13935;55.672;37.764;2022-08-03T06:16:56;13.32;;;9.40;;
26191;SDS011;13935;55.672;37.764;2022-08-03T06:18:01;14.32;;;9.40;;
26191;SDS011;13935;55.672;37.764;2022-08-03T06:19:03;13.85;;;9.18;;
26191;SDS011;13935;55.672;37.764;2022-08-03T06:20:06;14.52;;;10.10;;
26191;SDS011;13935;55.672;37.764;2022-08-03T06:21:11;14.65;;;9.38;;
26191;SDS011;13935;55.672;37.764;2022-08-03T06:22:16;11.23;;;9.50;;
26191;SDS011;13935;55.672;37.764;2022-08-03T06:23:19;13.30;;;10.05;;
26191;SDS011;13935;55.672;37.764;2022-08-03T06:24:21;12.52;;;9.35;;
26191;SDS011;13935;55.672;37.764;2022-08-03T06:25:27;14.10;;;9.70;;
26191;SDS011;13935;55.672;37.764;2022-08-03T06:26:29;12.50;;;8.98;;
26191;SDS011;13935;55.672;37.764;2022-08-03T06:27:33;12.43;;;9.40;;
26191;SDS011;13935;55.672;37.764;2022-08-03T06:28:38;13.88;;;9.20;;
26191;SDS011;13935;55.672;37.764;2022-08-03T06:29:54;10.73;;;8.93;;
26191;SDS011;13935;55.672;37.764;2022-08-03T06:30:56;13.43;;;9.13;;
26191;SDS011;13935;55.672;37.764;2022-08-03T06:31:59;12.90;;;9.13;;
26191;SDS011;13935;55.672;37.764;2022-08-03T06:33:01;11.55;;;8.88;;
26191;SDS011;13935;55.672;37.764;2022-08-03T06:34:03;11.77;;;8.43;;
26191;SDS011;13935;55.672;37.764;2022-08-03T06:35:26;14.25;;;8.65;;
26191;SDS011;13935;55.672;37.764;2022-08-03T06:36:28;13.32;;;8.50;;
26191;SDS011;13935;55.672;37.764;2022-08-03T06:37:43;11.73;;;8.75;;
26191;SDS011;13935;55.672;37.764;2022-08-03T06:38:47;11.82;;;8.60;;
26191;SDS011;13935;55.672;37.764;2022-08-03T06:39:49;11.65;;;8.15;;
26191;SDS011;13935;55.672;37.764;2022-08-03T06:40:51;11.40;;;7.75;;